createdAt,value
2023-04-15T00:01:45.589Z,101065.09
2023-04-15T00:04:12.159Z,101068.97
2023-04-15T00:06:39.685Z,101067.66
2023-04-15T00:09:06.151Z,101068.28
2023-04-15T00:11:32.715Z,101077.44
2023-04-15T00:13:59.295Z,101070.50
2023-04-15T00:16:25.812Z,101075.13
2023-04-15T00:18:52.388Z,101072.44
2023-04-15T00:21:18.758Z,101074.22
2023-04-15T00:23:45.237Z,101072.50
2023-04-15T00:26:12.640Z,101076.16
2023-04-15T00:28:39.280Z,101066.88
2023-04-15T00:31:05.716Z,101069.44
2023-04-15T00:33:32.282Z,101065.56
2023-04-15T00:35:58.948Z,101070.81
2023-04-15T00:38:25.555Z,101069.44
2023-04-15T00:40:53.310Z,101071.44
2023-04-15T00:43:20.124Z,101065.06
2023-04-15T00:45:47.347Z,101068.69
2023-04-15T00:48:14.212Z,101070.09
2023-04-15T00:50:40.663Z,101073.78
2023-04-15T00:53:07.074Z,101079.03
2023-04-15T00:55:33.821Z,101077.13
2023-04-15T00:58:00.459Z,101077.81
2023-04-15T01:00:27.212Z,101079.81
2023-04-15T01:02:53.797Z,101073.56
2023-04-15T01:05:20.345Z,101080.28
2023-04-15T01:07:47.897Z,101080.19
2023-04-15T01:10:14.347Z,101077.56
2023-04-15T01:12:40.775Z,101082.59
2023-04-15T01:15:08.054Z,101072.59
2023-04-15T01:17:34.807Z,101082.38
2023-04-15T01:20:01.681Z,101075.81
2023-04-15T01:22:28.787Z,101084.78
2023-04-15T01:25:02.299Z,101072.28
2023-04-15T01:27:28.745Z,101073.97
2023-04-15T01:29:55.121Z,101081.28
2023-04-15T01:32:21.541Z,101077.13
2023-04-15T01:34:47.960Z,101084.44
2023-04-15T01:37:14.412Z,101081.81
2023-04-15T01:39:41.110Z,101078.91
2023-04-15T01:42:07.592Z,101078.03
2023-04-15T01:44:34.007Z,101075.50
2023-04-15T01:47:00.848Z,101086.91
2023-04-15T01:49:27.600Z,101088.59
2023-04-15T01:51:54.179Z,101082.53
2023-04-15T01:54:20.649Z,101080.50
2023-04-15T01:56:47.240Z,101079.03
2023-04-15T01:59:13.775Z,101082.03
2023-04-15T02:01:40.928Z,101086.25
2023-04-15T02:04:08.044Z,101085.06
2023-04-15T02:06:34.567Z,101082.06
2023-04-15T02:09:01.079Z,101081.38
2023-04-15T02:11:27.709Z,101089.84
2023-04-15T02:13:54.084Z,101082.84
2023-04-15T02:16:20.505Z,101088.31
2023-04-15T02:18:47.494Z,101084.91
2023-04-15T02:21:14.618Z,101094.03
2023-04-15T02:23:41.076Z,101087.38
2023-04-15T02:26:08.065Z,101092.84
2023-04-15T02:28:34.520Z,101089.56
2023-04-15T02:31:02.151Z,101100.06
2023-04-15T02:33:28.521Z,101098.59
2023-04-15T02:35:54.947Z,101100.22
2023-04-15T02:38:21.338Z,101104.75
2023-04-15T02:40:49.653Z,101102.75
2023-04-15T02:43:17.186Z,101118.34
2023-04-15T02:45:44.144Z,101114.50
2023-04-15T02:48:11.021Z,101122.38
2023-04-15T02:50:39.875Z,101119.28
2023-04-15T02:53:06.937Z,101119.28
2023-04-15T02:55:33.497Z,101121.09
2023-04-15T02:58:01.013Z,101131.75
2023-04-15T03:00:27.644Z,101134.81
2023-04-15T03:03:01.962Z,101132.19
2023-04-15T03:05:28.612Z,101136.72
2023-04-15T03:07:55.101Z,101133.03
2023-04-15T03:10:22.237Z,101132.31
2023-04-15T03:12:48.945Z,101138.19
2023-04-15T03:15:15.678Z,101132.03
2023-04-15T03:17:42.158Z,101132.03
2023-04-15T03:20:09.567Z,101141.72
2023-04-15T03:22:36.032Z,101146.06
2023-04-15T03:25:02.358Z,101139.44
2023-04-15T03:27:28.754Z,101136.56
2023-04-15T03:29:56.758Z,101146.06
2023-04-15T03:32:23.201Z,101143.59
2023-04-15T03:34:49.655Z,101141.06
2023-04-15T03:37:16.089Z,101155.44
2023-04-15T03:39:42.433Z,101152.16
2023-04-15T03:42:08.780Z,101150.59
2023-04-15T03:44:35.146Z,101147.31
2023-04-15T03:47:01.716Z,101158.09
2023-04-15T03:49:28.063Z,101169.47
2023-04-15T03:51:54.488Z,101167.13
2023-04-15T03:54:20.857Z,101177.69
2023-04-15T03:56:47.200Z,101182.03
2023-04-15T03:59:13.560Z,101181.94
2023-04-15T04:01:39.973Z,101170.16
2023-04-15T04:04:06.716Z,101179.84
2023-04-15T04:06:33.591Z,101181.69
2023-04-15T04:09:00.097Z,101184.34
2023-04-15T04:11:26.629Z,101199.16
2023-04-15T04:13:53.048Z,101190.47
2023-04-15T04:16:20.007Z,101189.56
2023-04-15T04:18:46.510Z,101198.91
2023-04-15T04:21:12.928Z,101195.56
2023-04-15T04:23:39.575Z,101200.00
2023-04-15T04:26:06.100Z,101205.31
2023-04-15T04:28:32.575Z,101204.41
2023-04-15T04:30:59.370Z,101203.63
2023-04-15T04:33:25.916Z,101209.06
2023-04-15T04:35:52.364Z,101216.38
2023-04-15T04:38:18.769Z,101214.69
2023-04-15T04:40:45.310Z,101222.66
2023-04-15T04:43:11.744Z,101226.13
2023-04-15T04:45:38.225Z,101232.94
2023-04-15T04:48:07.142Z,101239.22
2023-04-15T04:50:34.017Z,101248.06
2023-04-15T04:53:00.959Z,101253.28
2023-04-15T04:55:27.788Z,101255.91
2023-04-15T04:57:54.200Z,101255.59
2023-04-15T05:00:20.658Z,101257.25
2023-04-15T05:02:47.303Z,101262.56
2023-04-15T05:05:13.829Z,101264.34
2023-04-15T05:07:40.611Z,101270.41
2023-04-15T05:10:07.676Z,101276.31
2023-04-15T05:12:34.308Z,101275.53
2023-04-15T05:15:01.000Z,101270.31
2023-04-15T05:17:27.580Z,101277.34
2023-04-15T05:19:54.119Z,101289.69
2023-04-15T05:22:20.538Z,101289.59
2023-04-15T05:24:47.037Z,101294.69
2023-04-15T05:27:13.423Z,101306.00
2023-04-15T05:29:39.877Z,101299.59
2023-04-15T05:32:06.622Z,101312.69
2023-04-15T05:34:32.992Z,101308.28
2023-04-15T05:36:59.489Z,101308.25
2023-04-15T05:39:26.618Z,101328.53
2023-04-15T05:41:53.330Z,101328.56
2023-04-15T05:44:19.790Z,101332.72
2023-04-15T05:46:46.466Z,101331.84
2023-04-15T05:49:12.855Z,101332.72
2023-04-15T05:51:39.192Z,101332.00
2023-04-15T05:54:05.712Z,101340.16
2023-04-15T05:56:32.421Z,101348.53
2023-04-15T05:59:00.249Z,101351.38
2023-04-15T06:01:26.836Z,101353.97
2023-04-15T06:03:53.379Z,101347.94
2023-04-15T06:06:20.451Z,101354.75
2023-04-15T06:08:47.185Z,101358.19
2023-04-15T06:11:13.631Z,101365.16
2023-04-15T06:13:40.102Z,101368.50
2023-04-15T06:16:06.887Z,101375.59
2023-04-15T06:18:33.432Z,101385.06
2023-04-15T06:20:59.847Z,101389.44
2023-04-15T06:23:27.018Z,101393.69
2023-04-15T06:25:54.370Z,101393.53
2023-04-15T06:28:21.019Z,101392.63
2023-04-15T06:30:47.447Z,101396.16
2023-04-15T06:33:13.834Z,101402.28
2023-04-15T06:35:40.505Z,101403.09
2023-04-15T06:38:07.095Z,101406.38
2023-04-15T06:40:33.599Z,101403.56
2023-04-15T06:42:59.959Z,101419.19
2023-04-15T06:45:26.605Z,101426.13
2023-04-15T06:47:53.108Z,101424.31
2023-04-15T06:50:19.510Z,101426.69
2023-04-15T06:52:46.098Z,101433.66
2023-04-15T06:55:12.574Z,101435.22
2023-04-15T06:57:38.990Z,101446.47
2023-04-15T07:00:05.985Z,101441.91
2023-04-15T07:02:32.578Z,101453.25
2023-04-15T07:04:59.062Z,101458.53
2023-04-15T07:07:25.666Z,101460.91
2023-04-15T07:09:53.648Z,101460.66
2023-04-15T07:12:20.719Z,101466.63
2023-04-15T07:14:47.366Z,101462.13
2023-04-15T07:17:13.859Z,101472.34
2023-04-15T07:19:40.564Z,101474.00
2023-04-15T07:22:07.632Z,101477.34
2023-04-15T07:24:33.946Z,101482.38
2023-04-15T07:27:01.277Z,101483.19
2023-04-15T07:29:27.972Z,101491.13
2023-04-15T07:31:54.339Z,101493.66
2023-04-15T07:34:21.116Z,101483.94
2023-04-15T07:36:50.600Z,101488.22
2023-04-15T07:39:17.605Z,101490.63
2023-04-15T07:41:44.009Z,101494.78
2023-04-15T07:44:10.529Z,101498.00
2023-04-15T07:46:38.271Z,101501.94
2023-04-15T07:49:04.907Z,101504.16
2023-04-15T07:51:32.245Z,101509.97
2023-04-15T07:53:59.064Z,101514.19
2023-04-15T07:56:26.451Z,101507.03
2023-04-15T07:58:52.965Z,101520.75
2023-04-15T08:01:19.374Z,101516.00
2023-04-15T08:03:45.949Z,101512.41
2023-04-15T08:06:12.447Z,101516.75
2023-04-15T08:08:38.821Z,101522.75
2023-04-15T08:11:05.336Z,101529.59
2023-04-15T08:13:31.700Z,101530.31
2023-04-15T08:16:18.446Z,101536.97
2023-04-15T08:18:45.649Z,101529.91
2023-04-15T08:21:12.199Z,101535.72
2023-04-15T08:23:39.252Z,101535.47
2023-04-15T08:26:05.805Z,101533.59
2023-04-15T08:28:32.380Z,101530.84
2023-04-15T08:30:58.862Z,101531.34
2023-04-15T08:33:25.704Z,101532.94
2023-04-15T08:35:52.080Z,101544.13
2023-04-15T08:38:18.819Z,101545.00
2023-04-15T08:40:46.098Z,101548.84
2023-04-15T08:43:30.297Z,101557.63
2023-04-15T08:46:00.137Z,101553.16
2023-04-15T08:48:29.101Z,101562.53
2023-04-15T08:50:55.769Z,101570.28
2023-04-15T08:53:22.326Z,101578.28
2023-04-15T08:55:52.554Z,101580.97
2023-04-15T08:58:19.799Z,101582.63
2023-04-15T09:00:46.635Z,101584.16
2023-04-15T09:03:13.728Z,101583.19
2023-04-15T09:05:40.112Z,101592.69
2023-04-15T09:08:06.635Z,101589.00
2023-04-15T09:10:33.724Z,101591.97
2023-04-15T09:13:01.953Z,101595.84
2023-04-15T09:15:29.868Z,101601.28
2023-04-15T09:17:59.215Z,101612.81
2023-04-15T09:20:25.569Z,101604.50
2023-04-15T09:22:52.277Z,101615.56
2023-04-15T09:25:21.744Z,101618.63
2023-04-15T09:27:49.556Z,101622.88
2023-04-15T09:30:16.817Z,101616.44
2023-04-15T09:32:57.254Z,101627.47
2023-04-15T09:35:25.287Z,101629.81
2023-04-15T09:37:52.947Z,101633.56
2023-04-15T09:40:42.472Z,101626.56
2023-04-15T09:43:12.795Z,101622.75
2023-04-15T09:45:46.948Z,101632.09
2023-04-15T09:48:22.248Z,101635.19
2023-04-15T09:50:49.722Z,101635.66
2023-04-15T09:53:19.077Z,101638.28
2023-04-15T09:55:49.284Z,101638.19
2023-04-15T09:58:21.178Z,101640.69
2023-04-15T10:00:49.446Z,101648.63
2023-04-15T10:03:28.498Z,101647.72
2023-04-15T10:05:57.402Z,101651.84
2023-04-15T10:08:25.908Z,101649.91
2023-04-15T10:10:52.715Z,101655.03
2023-04-15T10:13:22.357Z,101655.09
2023-04-15T10:15:56.004Z,101651.59
2023-04-15T10:18:26.669Z,101660.13
2023-04-15T10:20:53.876Z,101662.47
2023-04-15T10:23:21.719Z,101662.00
2023-04-15T10:25:51.634Z,101663.31
2023-04-15T10:28:18.235Z,101656.22
2023-04-15T10:30:44.788Z,101656.69
2023-04-15T10:33:11.406Z,101663.44
2023-04-15T10:35:39.230Z,101661.25
2023-04-15T10:38:33.745Z,101656.38
2023-04-15T10:41:17.957Z,101659.53
2023-04-15T10:43:57.923Z,101659.94
2023-04-15T10:46:41.542Z,101671.38
2023-04-15T10:49:17.081Z,101676.19
2023-04-15T10:51:52.798Z,101682.69
2023-04-15T10:54:25.392Z,101684.84
2023-04-15T10:57:16.878Z,101689.06
2023-04-15T11:00:04.572Z,101694.25
2023-04-15T11:02:42.941Z,101694.38
2023-04-15T11:05:17.361Z,101694.38
2023-04-15T11:07:49.397Z,101690.69
2023-04-15T11:10:20.629Z,101701.97
2023-04-15T11:12:57.148Z,101705.22
2023-04-15T11:15:45.663Z,101706.84
2023-04-15T11:18:14.963Z,101696.09
2023-04-15T11:20:45.031Z,101701.28
2023-04-15T11:23:15.316Z,101708.66
2023-04-15T11:25:43.013Z,101712.81
2023-04-15T11:28:09.926Z,101701.81
2023-04-15T11:30:37.732Z,101701.25
2023-04-15T11:33:06.065Z,101699.00
2023-04-15T11:35:33.418Z,101716.53
2023-04-15T11:38:08.710Z,101709.69
2023-04-15T11:40:35.751Z,101695.75
2023-04-15T11:43:20.290Z,101705.63
2023-04-15T11:45:53.122Z,101709.56
2023-04-15T11:48:22.122Z,101725.06
2023-04-15T11:50:54.491Z,101716.00
2023-04-15T11:53:20.921Z,101716.75
2023-04-15T11:55:50.792Z,101728.16
2023-04-15T11:58:23.185Z,101728.16
2023-04-15T12:01:00.021Z,101724.66
2023-04-15T12:03:29.089Z,101739.22
2023-04-15T12:06:16.526Z,101737.13
2023-04-15T12:08:54.107Z,101733.44
2023-04-15T12:11:32.459Z,101740.84
2023-04-15T12:14:05.104Z,101749.84
2023-04-15T12:16:35.233Z,101749.06
2023-04-15T12:19:09.653Z,101759.59
2023-04-15T12:21:38.567Z,101769.09
2023-04-15T12:24:07.427Z,101764.66
2023-04-15T12:26:48.491Z,101766.44
2023-04-15T12:29:17.217Z,101768.84
2023-04-15T12:31:57.780Z,101793.28
2023-04-15T12:34:33.019Z,101773.84
2023-04-15T12:37:01.896Z,101774.72
2023-04-15T12:39:31.589Z,101785.78
2023-04-15T12:42:00.143Z,101777.25
2023-04-15T12:44:27.265Z,101783.78
2023-04-15T12:46:54.227Z,101794.47
2023-04-15T12:49:21.947Z,101801.13
2023-04-15T12:51:53.609Z,101794.53
2023-04-15T12:54:20.422Z,101797.81
2023-04-15T12:56:48.216Z,101797.53
2023-04-15T12:59:16.056Z,101796.47
2023-04-15T13:01:42.543Z,101803.13
2023-04-15T13:04:09.496Z,101809.88
2023-04-15T13:06:36.848Z,101807.78
2023-04-15T13:09:05.257Z,101824.38
2023-04-15T13:11:33.819Z,101813.44
2023-04-15T13:14:08.850Z,101826.13
2023-04-15T13:16:36.299Z,101828.22
2023-04-15T13:19:03.941Z,101826.97
2023-04-15T13:21:34.970Z,101838.16
2023-04-15T13:24:01.906Z,101833.78
2023-04-15T13:26:28.292Z,101840.44
2023-04-15T13:28:54.615Z,101837.97
2023-04-15T13:31:21.089Z,101852.22
2023-04-15T13:33:47.509Z,101840.81
2023-04-15T13:36:13.977Z,101856.84
2023-04-15T13:38:40.399Z,101857.69
2023-04-15T13:41:06.730Z,101856.03
2023-04-15T13:43:34.215Z,101865.72
2023-04-15T13:46:00.712Z,101866.84
2023-04-15T13:48:27.172Z,101869.38
2023-04-15T13:50:53.544Z,101877.38
2023-04-15T13:53:19.958Z,101876.00
2023-04-15T13:55:46.357Z,101884.25
2023-04-15T13:58:12.744Z,101887.88
2023-04-15T14:00:39.176Z,101883.25
2023-04-15T14:03:05.791Z,101890.44
2023-04-15T14:05:32.912Z,101896.03
2023-04-15T14:08:00.377Z,101884.22
2023-04-15T14:10:26.908Z,101900.44
2023-04-15T14:12:53.416Z,101900.09
2023-04-15T14:15:19.890Z,101902.50
2023-04-15T14:17:46.347Z,101905.28
2023-04-15T14:20:14.040Z,101911.25
2023-04-15T14:22:42.848Z,101921.00
2023-04-15T14:25:10.503Z,101928.50
2023-04-15T14:27:38.132Z,101927.38
2023-04-15T14:30:04.983Z,101924.88
2023-04-15T14:32:31.601Z,101935.41
2023-04-15T14:34:57.913Z,101944.34
2023-04-15T14:37:24.268Z,101944.28
2023-04-15T14:39:50.843Z,101948.31
2023-04-15T14:42:17.261Z,101952.38
2023-04-15T14:44:44.742Z,101958.69
2023-04-15T14:47:11.244Z,101948.31
2023-04-15T14:49:37.736Z,101964.84
2023-04-15T14:52:04.309Z,101959.94
2023-04-15T14:54:30.901Z,101964.16
2023-04-15T14:56:57.329Z,101967.91
2023-04-15T14:59:23.917Z,101978.81
2023-04-15T15:01:50.665Z,101983.72
2023-04-15T15:04:17.403Z,101982.41
2023-04-15T15:06:44.032Z,101985.09
2023-04-15T15:09:10.487Z,101984.22
2023-04-15T15:11:36.825Z,101990.88
2023-04-15T15:14:03.245Z,101991.16
2023-04-15T15:16:29.770Z,101997.47
2023-04-15T15:18:56.411Z,102007.56
2023-04-15T15:21:22.900Z,102001.97
2023-04-15T15:23:49.404Z,102004.59
2023-04-15T15:26:15.830Z,102014.31
2023-04-15T15:28:42.373Z,102006.22
2023-04-15T15:31:09.004Z,102002.78
2023-04-15T15:33:35.593Z,102014.72
2023-04-15T15:36:03.432Z,102012.81
2023-04-15T15:38:29.802Z,102020.53
2023-04-15T15:40:56.195Z,102019.34
2023-04-15T15:43:22.665Z,102008.00
2023-04-15T15:45:51.787Z,102023.69
2023-04-15T15:48:18.544Z,102022.78
2023-04-15T15:50:45.703Z,102033.78
2023-04-15T15:53:12.465Z,102036.41
2023-04-15T15:55:38.856Z,102029.56
2023-04-15T15:58:05.188Z,102046.28
2023-04-15T16:00:31.629Z,102034.28
2023-04-15T16:05:27.546Z,102042.63
2023-04-15T16:07:53.965Z,102047.09
2023-04-15T16:10:20.543Z,102051.16
2023-04-15T16:12:46.944Z,102053.88
2023-04-15T16:15:13.833Z,102048.47
2023-04-15T16:17:40.324Z,102059.72
2023-04-15T16:20:08.359Z,102065.94
2023-04-15T16:22:35.344Z,102072.44
2023-04-15T16:25:02.009Z,102067.88
2023-04-15T16:27:28.477Z,102073.13
2023-04-15T16:29:54.874Z,102071.63
2023-04-15T16:32:21.470Z,102084.22
2023-04-15T16:34:48.063Z,102079.06
2023-04-15T16:37:14.476Z,102082.50
2023-04-15T16:39:40.930Z,102091.06
2023-04-15T16:42:07.386Z,102096.41
2023-04-15T16:44:34.002Z,102099.50
2023-04-15T16:47:02.224Z,102109.50
2023-04-15T16:49:29.707Z,102109.50
2023-04-15T16:51:56.201Z,102110.53
2023-04-15T16:54:22.748Z,102102.53
2023-04-15T16:56:49.136Z,102097.91
2023-04-15T16:59:15.714Z,102117.94
2023-04-15T17:01:42.152Z,102115.72
2023-04-15T17:04:08.670Z,102113.94
2023-04-15T17:06:35.209Z,102116.47
2023-04-15T17:09:01.600Z,102114.75
2023-04-15T17:11:28.401Z,102125.88
2023-04-15T17:13:54.769Z,102119.78
2023-04-15T17:16:21.313Z,102121.38
2023-04-15T17:18:47.773Z,102119.66
2023-04-15T17:21:15.982Z,102146.13
2023-04-15T17:23:42.353Z,102128.34
2023-04-15T17:26:08.742Z,102137.44
2023-04-15T17:28:35.076Z,102134.81
2023-04-15T17:31:01.512Z,102137.31
2023-04-15T17:34:03.537Z,102140.00
2023-04-15T17:36:14.527Z,102135.50
2023-04-15T17:38:40.932Z,102153.50
2023-04-15T17:41:07.816Z,102140.63
2023-04-15T17:43:34.248Z,102149.47
2023-04-15T17:46:00.815Z,102144.84
2023-04-15T17:48:27.396Z,102154.53
2023-04-15T17:50:53.893Z,102153.72
2023-04-15T17:53:20.403Z,102162.56
2023-04-15T17:55:46.792Z,102171.47
2023-04-15T17:58:13.203Z,102176.53
2023-04-15T18:00:39.513Z,102176.53
2023-04-15T18:03:06.102Z,102171.28
2023-04-15T18:05:32.681Z,102173.00
2023-04-15T18:07:59.209Z,102189.34
2023-04-15T18:10:25.720Z,102175.38
2023-04-15T18:12:52.066Z,102180.16
2023-04-15T18:15:18.998Z,102187.78
2023-04-15T18:17:45.855Z,102197.81
2023-04-15T18:20:12.908Z,102189.97
2023-04-15T18:22:39.742Z,102194.38
2023-04-15T18:25:06.859Z,102182.09
2023-04-15T18:27:34.328Z,102193.53
2023-04-15T18:30:00.794Z,102189.09
2023-04-15T18:32:31.673Z,102198.72
2023-04-15T18:34:58.513Z,102212.75
2023-04-15T18:37:26.171Z,102205.72
2023-04-15T18:39:52.667Z,102210.13
2023-04-15T18:42:19.711Z,102214.34
2023-04-15T18:44:46.076Z,102215.22
2023-04-15T18:47:12.607Z,102220.75
2023-04-15T18:49:39.082Z,102222.59
2023-04-15T18:52:05.417Z,102225.16
2023-04-15T18:54:31.875Z,102220.91
2023-04-15T18:56:58.282Z,102222.66
2023-04-15T18:59:30.122Z,102231.41
2023-04-15T19:01:57.652Z,102231.31
2023-04-15T19:04:24.198Z,102246.97
2023-04-15T19:06:50.893Z,102240.38
2023-04-15T19:09:17.376Z,102249.09
2023-04-15T19:11:43.939Z,102249.06
2023-04-15T19:14:11.213Z,102254.38
2023-04-15T19:16:37.701Z,102249.25
2023-04-15T19:19:06.572Z,102249.34
2023-04-15T19:21:33.818Z,102262.34
2023-04-15T19:24:01.249Z,102248.66
2023-04-15T19:26:27.732Z,102245.91
2023-04-15T19:28:54.911Z,102257.22
2023-04-15T19:31:21.306Z,102261.81
2023-04-15T19:33:47.680Z,102261.75
2023-04-15T19:36:14.115Z,102268.72
2023-04-15T19:38:40.685Z,102266.78
2023-04-15T19:41:07.037Z,102254.59
2023-04-15T19:43:33.676Z,102270.31
2023-04-15T19:46:03.915Z,102266.09
2023-04-15T19:48:30.448Z,102271.28
2023-04-15T19:50:57.292Z,102261.41
2023-04-15T19:53:25.657Z,102274.69
2023-04-15T19:55:52.122Z,102275.63
2023-04-15T19:58:18.472Z,102277.38
2023-04-15T20:00:44.957Z,102280.84
2023-04-15T20:03:11.632Z,102281.84
2023-04-15T20:05:38.100Z,102277.53
2023-04-15T20:08:04.592Z,102289.63
2023-04-15T20:10:31.733Z,102286.22
2023-04-15T20:12:58.354Z,102278.53
2023-04-15T20:15:24.912Z,102280.94
2023-04-15T20:17:51.516Z,102291.16
2023-04-15T20:20:18.275Z,102288.75
2023-04-15T20:22:44.752Z,102288.63
2023-04-15T20:25:11.354Z,102280.72
2023-04-15T20:27:37.698Z,102282.38
2023-04-15T20:30:05.030Z,102291.19
2023-04-15T20:32:35.881Z,102293.00
2023-04-15T20:35:03.770Z,102289.47
2023-04-15T20:37:32.829Z,102291.31
2023-04-15T20:40:00.357Z,102285.00
2023-04-15T20:42:26.923Z,102288.47
2023-04-15T20:44:53.347Z,102283.22
2023-04-15T20:47:19.846Z,102284.16
2023-04-15T20:49:47.415Z,102297.25
2023-04-15T20:52:13.905Z,102291.09
2023-04-15T20:54:40.294Z,102296.25
2023-04-15T20:57:06.879Z,102290.38
2023-04-15T20:59:34.820Z,102287.00
2023-04-15T21:02:01.655Z,102302.75
2023-04-15T21:04:28.139Z,102295.94
2023-04-15T21:06:54.528Z,102305.53
2023-04-15T21:09:20.890Z,102300.13
2023-04-15T21:12:00.640Z,102303.59
2023-04-15T21:14:27.813Z,102310.56
2023-04-15T21:16:54.339Z,102303.59
2023-04-15T21:19:20.896Z,102312.34
2023-04-15T21:21:47.296Z,102304.66
2023-04-15T21:24:13.716Z,102310.72
2023-04-15T21:26:40.909Z,102311.44
2023-04-15T21:29:10.408Z,102310.78
2023-04-15T21:31:37.886Z,102303.75
2023-04-15T21:34:04.346Z,102316.03
2023-04-15T21:36:31.537Z,102316.16
2023-04-15T21:38:57.982Z,102317.94
2023-04-15T21:41:24.522Z,102311.72
2023-04-15T21:43:51.038Z,102304.66
2023-04-15T21:46:22.540Z,102309.06
2023-04-15T21:48:52.598Z,102314.34
2023-04-15T21:51:18.991Z,102313.47
2023-04-15T21:53:45.610Z,102319.31
2023-04-15T21:56:12.094Z,102315.97
2023-04-15T21:58:38.497Z,102319.50
2023-04-15T22:01:05.527Z,102326.56
2023-04-15T22:03:34.061Z,102324.69
2023-04-15T22:06:04.275Z,102340.06
2023-04-15T22:08:36.115Z,102335.69
2023-04-15T22:11:20.480Z,102343.75
2023-04-15T22:13:46.903Z,102335.66
2023-04-15T22:16:13.308Z,102339.00
2023-04-15T22:18:39.723Z,102342.66
2023-04-15T22:21:06.188Z,102339.44
2023-04-15T22:23:32.648Z,102344.72
2023-04-15T22:25:59.664Z,102345.53
2023-04-15T22:28:26.085Z,102340.28
2023-04-15T22:30:54.540Z,102340.53
2023-04-15T22:33:21.122Z,102341.34
2023-04-15T22:35:47.458Z,102344.69
2023-04-15T22:38:13.844Z,102345.72
2023-04-15T22:40:40.443Z,102353.53
2023-04-15T22:43:06.858Z,102352.41
2023-04-15T22:45:33.248Z,102353.97
2023-04-15T22:47:59.650Z,102354.13
2023-04-15T22:50:26.200Z,102344.78
2023-04-15T22:52:52.639Z,102354.25
2023-04-15T22:55:19.022Z,102350.63
2023-04-15T22:57:45.543Z,102353.25
2023-04-15T23:00:12.329Z,102356.75
2023-04-15T23:02:38.849Z,102361.94
2023-04-15T23:05:12.581Z,102367.28
2023-04-15T23:07:39.573Z,102368.16
2023-04-15T23:10:06.961Z,102369.97
2023-04-15T23:12:33.345Z,102366.53
2023-04-15T23:14:59.745Z,102370.88
2023-04-15T23:17:26.757Z,102375.22
2023-04-15T23:19:53.197Z,102376.00
2023-04-15T23:22:19.628Z,102380.53
2023-04-15T23:24:46.208Z,102376.06
2023-04-15T23:27:12.674Z,102385.88
2023-04-15T23:29:39.098Z,102381.66
2023-04-15T23:32:05.953Z,102378.00
2023-04-15T23:34:32.547Z,102386.88
2023-04-15T23:36:58.872Z,102386.31
2023-04-15T23:39:25.568Z,102384.41
2023-04-15T23:41:51.969Z,102383.47
2023-04-15T23:44:18.320Z,102391.22
2023-04-15T23:46:44.764Z,102388.66
2023-04-15T23:49:11.351Z,102388.66
2023-04-15T23:51:37.833Z,102394.75
2023-04-15T23:54:04.289Z,102392.91
2023-04-15T23:56:31.391Z,102392.06
2023-04-15T23:58:57.796Z,102394.63
